Time;durP1;ratioP1;P1;durP2;ratioP2;P2;SDS_P1;SDS_P2;PMS_P1;PMS_P2;Temp;Humidity;BMP_temperature;BMP_pressure;BME280_temperature;BME280_humidity;BME280_pressure;Samples;Min_cycle;Max_cycle;Signal;HPM_P1;HPM_P2
2022/11/12 00:02:16;;;;;;;6.47;4.30;;;;;;;;;;5066605;28;20035;-81
2022/11/12 00:04:42;;;;;;;11.82;4.28;;;;;;;;;;5072870;28;20044;-82
2022/11/12 00:07:08;;;;;;;8.25;3.78;;;;;;;;;;5073213;28;20486;-82
2022/11/12 00:09:34;;;;;;;9.15;4.75;;;;;;;;;;5072106;28;20025;-81
2022/11/12 00:12:00;;;;;;;6.75;4.20;;;;;;;;;;5060713;28;20162;-82
2022/11/12 00:14:26;;;;;;;9.10;3.97;;;;;;;;;;5062552;28;20043;-81
2022/11/12 00:16:52;;;;;;;6.43;3.55;;;;;;;;;;5073579;28;20041;-81
2022/11/12 00:19:18;;;;;;;9.40;4.68;;;;;;;;;;5065764;28;20032;-81
2022/11/12 00:21:44;;;;;;;4.70;3.63;;;;;;;;;;5073082;28;20033;-82
2022/11/12 00:24:10;;;;;;;4.95;3.45;;;;;;;;;;5069667;28;20028;-82
2022/11/12 00:26:36;;;;;;;5.25;3.20;;;;;;;;;;5069019;28;20052;-82
2022/11/12 00:29:02;;;;;;;8.57;4.03;;;;;;;;;;5070815;28;20036;-81
2022/11/12 00:31:27;;;;;;;6.90;4.07;;;;;;;;;;5062299;28;20029;-82
2022/11/12 00:33:54;;;;;;;8.95;4.57;;;;;;;;;;5061448;28;20025;-81
2022/11/12 00:36:20;;;;;;;5.10;3.47;;;;;;;;;;5070199;28;20075;-82
2022/11/12 00:38:46;;;;;;;6.53;3.67;;;;;;;;;;5073641;28;20202;-81
2022/11/12 00:41:12;;;;;;;9.95;4.68;;;;;;;;;;5067472;28;20039;-81
2022/11/12 00:43:38;;;;;;;7.57;4.13;;;;;;;;;;5068012;28;20058;-82
2022/11/12 00:46:04;;;;;;;7.60;3.60;;;;;;;;;;5059325;28;20024;-82
2022/11/12 00:48:30;;;;;;;5.15;3.15;;;;;;;;;;5074400;28;20021;-81
2022/11/12 00:51:00;;;;;;;7.68;3.95;;;;;;;;;;5072171;28;20029;-81
2022/11/12 00:53:26;;;;;;;7.13;4.15;;;;;;;;;;5072842;28;20123;-81
2022/11/12 00:55:52;;;;;;;5.78;3.85;;;;;;;;;;5072851;28;20032;-82
2022/11/12 00:58:18;;;;;;;7.90;3.88;;;;;;;;;;5070903;28;20145;-83
2022/11/12 01:00:44;;;;;;;6.28;3.10;;;;;;;;;;5074503;28;20029;-82
2022/11/12 01:03:10;;;;;;;5.15;3.10;;;;;;;;;;5067959;28;20036;-82
2022/11/12 01:05:36;;;;;;;9.45;3.80;;;;;;;;;;5070988;28;20028;-82
2022/11/12 01:08:02;;;;;;;5.97;3.03;;;;;;;;;;5071544;28;20810;-83
2022/11/12 01:10:28;;;;;;;5.53;3.22;;;;;;;;;;5071822;28;20024;-81
2022/11/12 01:12:54;;;;;;;6.03;3.92;;;;;;;;;;5072878;28;20155;-82
2022/11/12 01:15:20;;;;;;;5.85;3.53;;;;;;;;;;5066766;28;20025;-83
2022/11/12 01:17:46;;;;;;;6.57;3.90;;;;;;;;;;5076544;28;20047;-83
2022/11/12 01:20:12;;;;;;;7.93;4.78;;;;;;;;;;5076239;28;20024;-81
2022/11/12 01:22:38;;;;;;;9.82;5.00;;;;;;;;;;5073782;28;20051;-82
2022/11/12 01:25:04;;;;;;;6.13;4.22;;;;;;;;;;5073698;28;20050;-82
2022/11/12 01:27:30;;;;;;;7.45;4.82;;;;;;;;;;5076970;28;20096;-82
2022/11/12 01:29:56;;;;;;;6.40;3.58;;;;;;;;;;5073605;28;20056;-82
2022/11/12 01:32:22;;;;;;;8.63;4.22;;;;;;;;;;5071162;28;20044;-82
2022/11/12 01:34:49;;;;;;;11.35;4.80;;;2.70;99.90;;;;;;5071579;28;20021;-81
2022/11/12 01:37:15;;;;;;;4.53;2.95;;;;;;;;;;5069900;28;20036;-82
2022/11/12 01:39:41;;;;;;;4.43;3.17;;;;;;;;;;5066389;28;20039;-82
2022/11/12 01:42:07;;;;;;;7.72;4.18;;;;;;;;;;5069163;28;20333;-81
2022/11/12 01:44:34;;;;;;;4.18;2.60;;;;;;;;;;5073442;28;20041;-82
2022/11/12 01:47:19;;;;;;;14.98;3.88;;;;;;;;;;5075651;28;20036;-81
2022/11/12 01:49:51;;;;;;;4.70;2.65;;;;;;;;;;5078007;28;20032;-82
2022/11/12 01:52:20;;;;;;;5.28;2.85;;;;;;;;;;5070465;28;20100;-81
2022/11/12 01:54:48;;;;;;;6.13;3.10;;;;;;;;;;5076308;28;20595;-83
2022/11/12 01:57:17;;;;;;;3.42;2.65;;;;;;;;;;5075542;28;20036;-82
2022/11/12 01:59:45;;;;;;;4.75;2.53;;;;;;;;;;5074199;28;20066;-81
2022/11/12 02:02:11;;;;;;;6.25;2.65;;;;;;;;;;5076501;28;20141;-81
2022/11/12 02:04:39;;;;;;;3.42;1.88;;;3.20;99.90;;;;;;5076317;28;20093;-83
2022/11/12 02:07:06;;;;;;;3.47;2.58;;;;;;;;;;5073568;28;20036;-82
2022/11/12 02:09:32;;;;;;;4.03;2.40;;;;;;;;;;5070905;28;20020;-81
2022/11/12 02:11:59;;;;;;;6.43;3.53;;;;;;;;;;5072361;28;20025;-82
2022/11/12 02:14:25;;;;;;;5.50;3.25;;;;;;;;;;5077221;28;20024;-81
2022/11/12 02:16:51;;;;;;;16.90;6.35;;;;;;;;;;5065291;28;20096;-81
2022/11/12 02:19:17;;;;;;;25.23;10.30;;;;;;;;;;5070880;28;20034;-82
2022/11/12 02:21:43;;;;;;;12.75;6.70;;;;;;;;;;5075132;28;20778;-83
2022/11/12 02:24:12;;;;;;;13.20;6.38;;;;;;;;;;5069958;28;20085;-83
2022/11/12 02:26:44;;;;;;;12.20;5.90;;;;;;;;;;5073276;28;20062;-82
2022/11/12 02:29:10;;;;;;;10.05;5.05;;;;;;;;;;5076900;28;20040;-81
2022/11/12 02:31:36;;;;;;;4.90;2.50;;;;;;;;;;5070487;28;20055;-81
2022/11/12 02:34:02;;;;;;;8.13;3.75;;;;;;;;;;5055653;28;20044;-82
2022/11/12 02:36:28;;;;;;;4.07;2.58;;;;;;;;;;5070555;28;20613;-82
2022/11/12 02:38:54;;;;;;;5.80;2.92;;;;;;;;;;5072410;28;20028;-82
2022/11/12 02:41:20;;;;;;;3.80;2.95;;;;;;;;;;5070318;28;20021;-81
2022/11/12 02:43:46;;;;;;;4.43;2.80;;;;;;;;;;5063863;28;20029;-82
2022/11/12 02:46:12;;;;;;;4.57;2.83;;;;;;;;;;5072770;28;20465;-82
2022/11/12 02:48:38;;;;;;;5.05;3.25;;;;;;;;;;5074483;28;20032;-81
2022/11/12 02:51:05;;;;;;;5.07;3.03;;;;;;;;;;5071777;28;20089;-82
2022/11/12 02:53:31;;;;;;;3.38;2.42;;;;;;;;;;5073627;28;20089;-82
2022/11/12 02:55:57;;;;;;;5.00;3.08;;;;;;;;;;5075243;28;20028;-82
2022/11/12 02:58:23;;;;;;;3.28;1.77;;;;;;;;;;5072663;28;20056;-82
2022/11/12 03:00:49;;;;;;;7.05;3.00;;;;;;;;;;5075208;28;20488;-81
2022/11/12 03:03:15;;;;;;;3.50;2.28;;;;;;;;;;5071224;28;20033;-81
2022/11/12 03:05:41;;;;;;;4.72;3.10;;;;;;;;;;5077481;28;20028;-82
2022/11/12 03:08:08;;;;;;;4.60;2.72;;;;;;;;;;5050536;28;20027;-83
2022/11/12 03:10:36;;;;;;;4.70;2.55;;;;;;;;;;5077707;28;20086;-81
2022/11/12 03:13:02;;;;;;;6.05;2.83;;;;;;;;;;5075939;28;20025;-81
2022/11/12 03:15:29;;;;;;;5.82;3.33;;;;;;;;;;5068683;28;20425;-82
2022/11/12 03:17:57;;;;;;;4.15;3.03;;;;;;;;;;5078097;28;20032;-82
2022/11/12 03:20:23;;;;;;;4.07;2.42;;;;;;;;;;5072888;28;20482;-82
2022/11/12 03:23:00;;;;;;;4.60;2.47;;;3.80;99.90;;;;;;5069663;28;20036;-82
2022/11/12 03:25:27;;;;;;;3.58;2.58;;;;;;;;;;5076612;28;20069;-81
2022/11/12 03:28:01;;;;;;;4.00;2.72;;;3.70;99.90;;;;;;5077652;28;20028;-81
2022/11/12 03:30:28;;;;;;;3.88;2.50;;;;;;;;;;5074052;28;20029;-81
2022/11/12 03:32:54;;;;;;;4.88;3.38;;;;;;;;;;5076643;28;20082;-82
2022/11/12 03:35:20;;;;;;;4.88;2.60;;;;;;;;;;5077985;28;20101;-82
2022/11/12 03:37:46;;;;;;;6.35;2.67;;;;;;;;;;5077579;28;20060;-82
2022/11/12 03:40:12;;;;;;;4.75;2.65;;;;;;;;;;5082542;28;20012;-81
2022/11/12 03:42:38;;;;;;;6.90;3.28;;;;;;;;;;5085519;28;20039;-81
2022/11/12 03:45:04;;;;;;;4.85;2.90;;;;;;;;;;5084109;28;20040;-81
2022/11/12 03:47:29;;;;;;;3.38;2.10;;;;;;;;;;5089601;28;20028;-81
2022/11/12 03:49:55;;;;;;;5.20;2.90;;;;;;;;;;5064234;28;22252;-81
2022/11/12 03:52:21;;;;;;;2.67;1.77;;;;;;;;;;5066108;28;20036;-81
2022/11/12 03:54:47;;;;;;;5.50;2.80;;;;;;;;;;5067445;28;20028;-80
2022/11/12 03:57:13;;;;;;;3.20;2.20;;;;;;;;;;5069375;28;20044;-81
2022/11/12 03:59:39;;;;;;;6.22;3.03;;;;;;;;;;5068656;28;20124;-81
2022/11/12 04:02:05;;;;;;;5.50;2.97;;;;;;;;;;5067242;28;20040;-81
2022/11/12 04:10:00;;;;;;;4.68;3.13;;;;;;;;;;5065995;28;20039;-80
2022/11/12 04:15:11;;;;;;;3.97;2.25;;;;;;;;;;5063831;28;20148;-81
2022/11/12 04:23:06;;;;;;;6.55;3.72;;;;;;;;;;5069617;28;20047;-80
2022/11/12 04:28:16;;;;;;;8.52;3.72;;;;;;;;;;5064715;28;20360;-81
2022/11/12 04:30:42;;;;;;;6.53;4.32;;;;;;;;;;5074537;28;20059;-81
2022/11/12 04:33:08;;;;;;;7.40;4.03;;;;;;;;;;5068036;28;20283;-81
2022/11/12 04:35:34;;;;;;;5.40;3.78;;;;;;;;;;5072495;28;20021;-81
2022/11/12 04:38:00;;;;;;;7.97;3.60;;;;;;;;;;5072894;28;20068;-81
2022/11/12 04:45:58;;;;;;;6.35;3.25;;;;;;;;;;5072599;28;20059;-80
2022/11/12 04:48:24;;;;;;;4.85;2.38;;;;;;;;;;5071700;28;20068;-81
2022/11/12 04:50:55;;;;;;;5.88;4.20;;;;;;;;;;5070621;28;20048;-81
2022/11/12 04:53:21;;;;;;;4.10;3.00;;;;;;;;;;5073887;28;20191;-81
2022/11/12 04:55:51;;;;;;;5.70;3.67;;;;;;;;;;5069814;28;22162;-80
2022/11/12 04:58:17;;;;;;;3.92;2.58;;;;;;;;;;5072679;28;20059;-81
2022/11/12 05:00:42;;;;;;;4.43;2.80;;;;;;;;;;5069033;28;20037;-81
2022/11/12 05:03:08;;;;;;;4.93;2.40;;;;;;;;;;5058214;28;20063;-81
2022/11/12 05:05:34;;;;;;;5.40;4.15;;;;;;;;;;5067168;28;20136;-81
2022/11/12 05:08:01;;;;;;;4.55;3.30;;;;;;;;;;5073431;28;20663;-80
2022/11/12 05:10:27;;;;;;;5.75;3.92;;;;;;;;;;5066902;28;20024;-81
2022/11/12 05:12:53;;;;;;;5.80;3.85;;;;;;;;;;5080295;28;20038;-80
2022/11/12 05:15:19;;;;;;;7.07;3.75;;;;;;;;;;5072667;28;20529;-81
2022/11/12 05:17:45;;;;;;;5.97;3.13;;;;;;;;;;5073952;28;20123;-82
2022/11/12 05:20:11;;;;;;;5.70;3.13;;;;;;;;;;5069155;28;20046;-82
2022/11/12 05:22:37;;;;;;;5.55;3.38;;;;;;;;;;5068138;28;20044;-81
2022/11/12 05:25:04;;;;;;;5.15;3.30;;;;;;;;;;5070224;28;20028;-81
2022/11/12 05:27:30;;;;;;;4.63;2.85;;;;;;;;;;5076750;28;20501;-82
2022/11/12 05:29:56;;;;;;;5.63;2.55;;;;;;;;;;5079246;28;20123;-81
2022/11/12 05:32:22;;;;;;;6.28;2.95;;;;;;;;;;5066532;28;20660;-80
2022/11/12 05:34:48;;;;;;;4.63;2.95;;;;;;;;;;5069029;28;20048;-81
2022/11/12 05:37:14;;;;;;;4.65;2.45;;;;;;;;;;5072799;28;20043;-81
2022/11/12 05:39:40;;;;;;;8.85;3.35;;;;;;;;;;5069221;28;20056;-80
2022/11/12 05:42:07;;;;;;;5.38;2.97;;;;;;;;;;5075893;28;20086;-81
2022/11/12 05:44:33;;;;;;;3.80;2.67;;;;;;;;;;5076029;28;20454;-81
2022/11/12 05:46:59;;;;;;;5.60;3.28;;;;;;;;;;5071840;28;20028;-80
2022/11/12 05:49:25;;;;;;;4.03;2.38;;;;;;;;;;5075268;28;20024;-80
2022/11/12 05:51:51;;;;;;;4.22;2.83;;;;;;;;;;5073676;28;20099;-82
2022/11/12 05:54:17;;;;;;;5.18;2.97;;;;;;;;;;5074924;28;20032;-82
2022/11/12 05:56:44;;;;;;;4.38;2.40;;;;;;;;;;5081191;28;20107;-81
2022/11/12 05:59:11;;;;;;;4.32;3.15;;;;;;;;;;5073666;28;20040;-81
2022/11/12 06:01:42;;;;;;;6.32;2.88;;;;;;;;;;5067658;28;20024;-81
2022/11/12 06:04:09;;;;;;;3.72;2.33;;;;;;;;;;5074500;28;20033;-81
2022/11/12 06:06:35;;;;;;;4.07;2.70;;;;;;;;;;5080543;28;20025;-81
2022/11/12 06:09:01;;;;;;;4.07;2.58;;;;;;;;;;5077645;28;20021;-81
2022/11/12 06:11:27;;;;;;;3.70;2.38;;;;;;;;;;5065256;28;20084;-81
2022/11/12 06:13:53;;;;;;;8.23;4.47;;;;;;;;;;5085877;28;20473;-81
2022/11/12 06:16:19;;;;;;;11.63;5.03;;;;;;;;;;5061815;28;20028;-82
2022/11/12 06:18:45;;;;;;;8.13;4.70;;;;;;;;;;5065412;28;20028;-81
2022/11/12 06:21:18;;;;;;;10.52;5.45;;;;;;;;;;5073848;28;20028;-82
2022/11/12 06:23:44;;;;;;;14.43;8.18;;;;;;;;;;5071398;28;20036;-81
2022/11/12 06:26:10;;;;;;;13.70;6.15;;;;;;;;;;5071933;28;20036;-82
2022/11/12 06:28:36;;;;;;;8.52;5.20;;;;;;;;;;5075417;28;20394;-81
2022/11/12 06:31:02;;;;;;;7.28;4.97;;;;;;;;;;5063231;28;21174;-81
2022/11/12 06:33:28;;;;;;;5.97;3.17;;;;;;;;;;5068416;28;20028;-82
2022/11/12 06:36:01;;;;;;;4.80;2.40;;;;;;;;;;5075177;28;20382;-84
2022/11/12 06:38:29;;;;;;;5.10;2.55;;;;;;;;;;5060397;28;20875;-83
2022/11/12 06:40:54;;;;;;;7.40;2.67;;;;;;;;;;5047484;28;20618;-84
2022/11/12 06:43:20;;;;;;;4.32;2.53;;;;;;;;;;5056910;28;20047;-87
2022/11/12 06:45:46;;;;;;;5.00;3.38;;;;;;;;;;5064654;28;20028;-83
2022/11/12 06:48:12;;;;;;;4.75;2.85;;;;;;;;;;5061596;28;20989;-81
2022/11/12 06:50:38;;;;;;;4.63;2.75;;;;;;;;;;5073407;28;20067;-81
2022/11/12 06:53:04;;;;;;;4.47;2.60;;;;;;;;;;5065252;28;20047;-81
2022/11/12 06:55:30;;;;;;;3.13;2.33;;;;;;;;;;5078082;28;20156;-81
2022/11/12 06:57:56;;;;;;;3.40;2.45;;;;;;;;;;5069046;28;20106;-81
2022/11/12 07:00:23;;;;;;;3.70;2.50;;;;;;;;;;5059633;28;20025;-81
2022/11/12 07:02:48;;;;;;;4.18;3.05;;;;;;;;;;5064270;28;20032;-82
2022/11/12 07:05:14;;;;;;;6.03;2.78;;;;;;;;;;5062688;28;20469;-83
2022/11/12 07:07:40;;;;;;;4.03;3.50;;;;;;;;;;5058193;28;20141;-82
2022/11/12 07:10:07;;;;;;;3.00;2.13;;;;;;;;;;5045416;28;20116;-82
2022/11/12 07:12:34;;;;;;;4.28;2.38;;;;;;;;;;5067411;28;20068;-84
2022/11/12 07:15:00;;;;;;;11.13;2.47;;;;;;;;;;5064946;28;20678;-83
2022/11/12 07:17:26;;;;;;;5.07;3.22;;;;;;;;;;5062027;28;20075;-84
2022/11/12 07:19:52;;;;;;;7.97;4.15;;;;;;;;;;5049668;28;20025;-82
2022/11/12 07:22:18;;;;;;;8.52;5.50;;;;;;;;;;5057772;28;20454;-82
2022/11/12 07:24:44;;;;;;;25.20;10.32;;;;;;;;;;5059797;28;20047;-81
2022/11/12 07:27:10;;;;;;;19.83;8.00;;;;;;;;;;5067384;28;20071;-82
2022/11/12 07:29:36;;;;;;;8.40;4.95;;;;;;;;;;5059813;28;20029;-81
2022/11/12 07:32:01;;;;;;;10.18;5.25;;;;;;;;;;5062940;28;20033;-83
2022/11/12 07:34:27;;;;;;;9.13;5.68;;;;;;;;;;5053418;28;20020;-83
2022/11/12 07:36:53;;;;;;;9.35;5.70;;;;;;;;;;5059709;28;20036;-83
2022/11/12 07:39:19;;;;;;;8.10;5.07;;;;;;;;;;5054533;28;20039;-83
2022/11/12 07:41:45;;;;;;;10.07;6.03;;;;;;;;;;5055536;28;20032;-82
2022/11/12 07:44:11;;;;;;;10.48;5.53;;;;;;;;;;5064811;28;20020;-88
2022/11/12 07:46:37;;;;;;;25.50;6.43;;;;;;;;;;5056456;28;20536;-83
2022/11/12 07:49:03;;;;;;;14.73;6.65;;;;;;;;;;5065857;28;20466;-84
2022/11/12 07:51:29;;;;;;;12.35;6.43;;;;;;;;;;5055702;28;20501;-85
2022/11/12 07:53:56;;;;;;;10.98;5.43;;;;;;;;;;5059194;28;20024;-81
2022/11/12 07:56:23;;;;;;;9.23;5.53;;;;;;;;;;5052791;28;20123;-81
2022/11/12 07:58:49;;;;;;;13.27;6.78;;;;;;;;;;5052452;28;20401;-80
2022/11/12 08:01:29;;;;;;;13.77;5.63;;;;;;;;;;5054255;28;20028;-80
2022/11/12 08:03:55;;;;;;;11.13;6.15;;;;;;;;;;5055440;28;20029;-85
2022/11/12 08:06:21;;;;;;;11.27;6.82;;;;;;;;;;5062448;28;20108;-85
2022/11/12 08:08:47;;;;;;;14.98;6.85;;;;;;;;;;5070261;28;20056;-85
2022/11/12 08:11:13;;;;;;;11.18;6.70;;;;;;;;;;5058118;28;20067;-85
2022/11/12 08:13:39;;;;;;;12.07;5.70;;;;;;;;;;5065661;28;20033;-83
2022/11/12 08:16:06;;;;;;;10.00;5.25;;;;;;;;;;5055071;28;20490;-87
2022/11/12 08:18:33;;;;;;;10.30;5.05;;;;;;;;;;5061799;28;20033;-85
2022/11/12 08:20:59;;;;;;;10.70;5.28;;;;;;;;;;5060776;28;20028;-87
2022/11/12 08:23:25;;;;;;;8.75;4.97;;;;;;;;;;5064325;28;20037;-85
2022/11/12 08:25:51;;;;;;;10.77;5.13;;;;;;;;;;5060782;28;20043;-85
2022/11/12 08:28:17;;;;;;;17.17;6.20;;;;;;;;;;5050122;28;20880;-86
2022/11/12 08:30:43;;;;;;;15.52;9.15;;;;;;;;;;5051410;28;20013;-84
2022/11/12 08:33:09;;;;;;;15.00;8.18;;;;;;;;;;5057902;28;20150;-86
2022/11/12 08:35:38;;;;;;;15.73;7.63;;;;;;;;;;5056788;28;20024;-87
2022/11/12 08:38:09;;;;;;;11.20;7.43;;;;;;;;;;5060238;28;20052;-86
2022/11/12 08:40:35;;;;;;;11.32;6.20;;;;;;;;;;5056250;28;20088;-87
2022/11/12 08:43:06;;;;;;;11.90;7.22;;;7.30;99.90;;;;;;5058028;28;20102;-84
2022/11/12 08:45:34;;;;;;;10.10;6.03;;;;;;;;;;5057613;28;20031;-82
2022/11/12 08:48:01;;;;;;;12.13;7.50;;;;;;;;;;5056901;28;20033;-83
2022/11/12 08:50:27;;;;;;;11.65;7.07;;;;;;;;;;5058938;28;20025;-82
2022/11/12 08:52:53;;;;;;;11.00;7.18;;;;;;;;;;5072570;28;20012;-84
2022/11/12 08:55:19;;;;;;;11.23;6.03;;;;;;;;;;5077628;28;20040;-80
2022/11/12 08:57:45;;;;;;;9.57;5.43;;;;;;;;;;5080004;28;20048;-80
2022/11/12 09:00:12;;;;;;;7.93;5.03;;;6.90;99.90;;;;;;5073192;28;20021;-80
2022/11/12 09:02:38;;;;;;;9.77;5.68;;;;;;;;;;5065187;28;20045;-81
2022/11/12 09:05:04;;;;;;;5.70;4.68;;;;;;;;;;5070239;28;20024;-82
2022/11/12 09:07:31;;;;;;;9.35;6.22;;;;;;;;;;5061493;28;20028;-80
2022/11/12 09:09:57;;;;;;;7.22;4.57;;;;;;;;;;5061991;28;20040;-81
2022/11/12 09:12:23;;;;;;;7.80;4.57;;;;;;;;;;5063967;28;20035;-79
2022/11/12 09:14:49;;;;;;;7.53;4.30;;;;;;;;;;5065690;28;20055;-82
2022/11/12 09:17:15;;;;;;;6.65;3.83;;;;;;;;;;5058767;28;20041;-82
2022/11/12 09:19:41;;;;;;;6.00;3.28;;;;;;;;;;5061759;28;20028;-81
2022/11/12 09:22:07;;;;;;;7.95;3.38;;;;;;;;;;5060654;28;20064;-81
2022/11/12 09:24:33;;;;;;;11.80;6.35;;;;;;;;;;5068354;28;20071;-83
2022/11/12 09:26:59;;;;;;;9.73;5.10;;;;;;;;;;5066769;28;20040;-80
2022/11/12 09:29:25;;;;;;;6.55;4.57;;;;;;;;;;5059077;28;20029;-82
2022/11/12 09:31:51;;;;;;;5.40;3.25;;;;;;;;;;5064800;28;20033;-82
2022/11/12 09:34:17;;;;;;;9.25;3.78;;;;;;;;;;5065005;28;20382;-81
2022/11/12 09:36:42;;;;;;;5.40;3.60;;;8.90;99.90;;;;;;5061657;28;20048;-82
2022/11/12 09:39:08;;;;;;;6.57;4.07;;;;;;;;;;5064663;28;20056;-81
2022/11/12 09:41:38;;;;;;;3.85;2.58;;;;;;;;;;5065971;28;20088;-82
2022/11/12 09:44:08;;;;;;;6.95;3.50;;;;;;;;;;5068651;28;20050;-81
2022/11/12 09:46:38;;;;;;;11.68;3.83;;;;;;;;;;5059860;28;20017;-81
2022/11/12 09:49:11;;;;;;;5.00;3.08;;;8.80;99.90;;;;;;5069336;28;20043;-81
2022/11/12 09:51:45;;;;;;;9.82;5.72;;;8.70;99.90;;;;;;5061005;28;20387;-81
2022/11/12 09:54:20;;;;;;;6.03;3.83;;;;;;;;;;5063723;28;20102;-80
2022/11/12 09:56:49;;;;;;;7.28;3.25;;;;;;;;;;5059384;28;20037;-81
2022/11/12 09:59:15;;;;;;;4.22;2.90;;;;;;;;;;5065430;28;20122;-81
2022/11/12 10:01:50;;;;;;;7.93;3.45;;;9.30;99.90;;;;;;5066232;28;20111;-80
2022/11/12 10:04:36;;;;;;;7.95;4.18;;;10.00;99.90;;;;;;5059023;28;20024;-81
2022/11/12 10:07:32;;;;;;;7.65;4.32;;;9.50;99.90;;;;;;5060982;28;20028;-81
2022/11/12 10:10:00;;;;;;;6.47;3.40;;;9.50;99.90;;;;;;5059302;28;20040;-80
2022/11/12 10:13:05;;;;;;;5.53;2.35;;;9.50;99.90;;;;;;5066844;28;20233;-80
2022/11/12 10:18:41;;;;;;;6.30;3.95;;;10.40;99.90;;;;;;5063846;28;20096;-80
2022/11/12 10:21:19;;;;;;;8.32;3.60;;;;;;;;;;5067832;28;20037;-80
2022/11/12 10:23:48;;;;;;;3.42;2.10;;;10.20;99.90;;;;;;5075150;28;20385;-80
2022/11/12 10:26:19;;;;;;;4.70;2.10;;;10.50;99.90;;;;;;5065132;28;20027;-80
2022/11/12 10:28:45;;;;;;;4.13;2.40;;;;;;;;;;5067953;28;20029;-79
2022/11/12 10:31:16;;;;;;;6.22;2.67;;;;;;;;;;5064914;28;20082;-80
2022/11/12 10:33:41;;;;;;;10.50;3.05;;;10.30;99.90;;;;;;5069481;28;20098;-80
2022/11/12 10:36:42;;;;;;;3.28;2.35;;;10.70;99.90;;;;;;5070128;28;20016;-79
2022/11/12 10:39:08;;;;;;;3.95;2.85;;;;;;;;;;5045200;28;20382;-81
2022/11/12 10:41:34;;;;;;;2.97;1.75;;;;;;;;;;5063689;28;20407;-80
2022/11/12 10:44:02;;;;;;;5.55;3.17;;;11.10;99.90;;;;;;5064657;28;20032;-79
2022/11/12 10:46:34;;;;;;;5.38;2.67;;;11.30;99.90;;;;;;5058564;28;20203;-80
2022/11/12 10:49:01;;;;;;;6.05;3.20;;;;;;;;;;5060621;28;20080;-80
2022/11/12 10:51:31;;;;;;;11.23;4.78;;;;;;;;;;5059746;28;20112;-80
2022/11/12 10:53:57;;;;;;;11.52;4.57;;;10.60;99.90;;;;;;5063147;28;20024;-80
2022/11/12 10:56:30;;;;;;;9.52;4.78;;;11.60;99.90;;;;;;5065384;28;20499;-79
2022/11/12 10:59:12;;;;;;;12.75;5.55;;;11.80;99.90;;;;;;5067893;28;20041;-80
2022/11/12 11:01:38;;;;;;;8.45;4.88;;;;;;;;;;5060257;28;20036;-80
2022/11/12 11:04:14;;;;;;;11.85;4.90;;;;;;;;;;5070459;28;20552;-80
2022/11/12 11:06:40;;;;;;;9.25;4.00;;;;;;;;;;5060887;28;20033;-81
2022/11/12 11:09:12;;;;;;;9.82;4.07;;;11.00;99.90;;;;;;5065110;28;20028;-80
2022/11/12 11:11:52;;;;;;;7.30;4.15;;;11.00;99.90;;;;;;5067935;28;20100;-80
2022/11/12 11:14:20;;;;;;;4.13;2.20;;;11.70;99.90;;;;;;5072673;28;20021;-80
2022/11/12 11:16:49;;;;;;;6.20;2.95;;;11.30;99.90;;;;;;5078413;28;20051;-81
2022/11/12 11:19:15;;;;;;;4.78;2.85;;;11.50;99.90;;;;;;5069590;28;20102;-81
2022/11/12 11:21:49;;;;;;;10.88;4.13;;;11.50;99.90;;;;;;5057211;28;20016;-80
2022/11/12 11:24:41;;;;;;;7.78;3.63;;;11.80;99.90;;;;;;5068877;28;20847;-81
2022/11/12 11:27:21;;;;;;;7.15;3.80;;;11.60;99.90;;;;;;5066994;28;20040;-80
2022/11/12 11:30:12;;;;;;;9.50;4.05;;;11.10;99.90;;;;;;5070067;28;20107;-80
2022/11/12 11:33:19;;;;;;;10.88;4.30;;;12.40;99.90;;;;;;5067425;28;20024;-81
2022/11/12 11:36:15;;;;;;;9.18;5.18;;;11.50;99.90;;;;;;5074465;28;20040;-81
2022/11/12 11:38:53;;;;;;;8.63;4.15;;;12.50;99.90;;;;;;5074834;28;20119;-80
2022/11/12 11:41:31;;;;;;;8.85;4.63;;;;;;;;;;5071538;28;20039;-81
2022/11/12 11:44:05;;;;;;;7.00;3.58;;;11.90;99.90;;;;;;5067988;28;20032;-82
2022/11/12 11:46:58;;;;;;;11.07;4.53;;;11.90;99.90;;;;;;5070412;28;20062;-80
2022/11/12 11:49:39;;;;;;;5.50;2.60;;;11.90;99.90;;;;;;5067016;28;20111;-80
2022/11/12 11:52:31;;;;;;;2.95;1.88;;;11.90;99.90;;;;;;5068245;28;20044;-82
2022/11/12 11:55:14;;;;;;;1.80;1.38;;;12.00;99.90;;;;;;5074193;28;20119;-81
2022/11/12 11:57:51;;;;;;;2.70;1.67;;;12.00;99.90;;;;;;5072602;28;20037;-82
2022/11/12 12:00:21;;;;;;;3.72;1.70;;;;;;;;;;5065827;28;20404;-80
2022/11/12 12:02:50;;;;;;;2.50;1.40;;;11.90;99.90;;;;;;5070400;28;20029;-80
2022/11/12 12:05:32;;;;;;;4.90;2.15;;;;;;;;;;5072927;28;20036;-82
2022/11/12 12:08:06;;;;;;;3.30;2.33;;;11.70;99.90;;;;;;5065913;28;20024;-80
2022/11/12 12:10:46;;;;;;;4.28;2.15;;;11.70;99.90;;;;;;5071018;28;20021;-81
2022/11/12 12:13:50;;;;;;;7.05;4.75;;;12.20;99.90;;;;;;5070989;28;20029;-80
2022/11/12 12:16:39;;;;;;;7.28;4.38;;;;;;;;;;5030680;28;20052;-80
2022/11/12 12:19:51;;;;;;;10.10;3.47;;;13.40;99.90;;;;;;5063849;28;20048;-80
2022/11/12 12:22:39;;;;;;;4.15;2.42;;;13.10;99.90;;;;;;5036738;28;20032;-81
2022/11/12 12:25:33;;;;;;;6.32;3.08;;;12.30;99.90;;;;;;5072343;28;20069;-80
2022/11/12 12:28:06;;;;;;;5.35;2.38;;;12.20;99.90;;;;;;5071467;28;20675;-80
2022/11/12 12:30:38;;;;;;;4.45;2.05;;;13.50;99.90;;;;;;5068594;28;20056;-81
2022/11/12 12:33:13;;;;;;;6.05;1.90;;;13.50;99.90;;;;;;5063738;28;20569;-81
2022/11/12 12:35:57;;;;;;;4.72;2.45;;;13.90;99.90;;;;;;5072141;28;20032;-82
2022/11/12 12:39:24;;;;;;;4.47;2.72;;;13.80;99.90;;;;;;5072443;28;20048;-82
2022/11/12 12:42:04;;;;;;;3.13;1.85;;;13.90;99.90;;;;;;4960554;28;20043;-82
2022/11/12 12:47:22;;;;;;;7.18;2.00;;;13.50;99.90;;;;;;5072721;28;20031;-80
2022/11/12 12:49:49;;;;;;;3.30;2.15;;;13.70;99.90;;;;;;5074471;28;20100;-82
2022/11/12 12:52:15;;;;;;;3.70;2.22;;;;;;;;;;5071596;28;20040;-82
2022/11/12 12:54:41;;;;;;;1.85;1.25;;;;;;;;;;5068694;28;20074;-81
2022/11/12 12:57:25;;;;;;;4.95;1.90;;;14.20;99.90;;;;;;5074455;28;20103;-83
2022/11/12 13:00:24;;;;;;;4.45;1.95;;;13.90;99.90;;;;;;5074827;28;20509;-83
2022/11/12 13:02:50;;;;;;;4.45;1.83;;;;;;;;;;5065177;28;20028;-82
2022/11/12 13:06:04;;;;;;;3.70;1.70;;;13.80;99.90;;;;;;5062482;28;20430;-83
2022/11/12 13:08:34;;;;;;;3.83;2.22;;;14.10;99.90;;;;;;5072097;28;20090;-82
2022/11/12 13:11:01;;;;;;;2.28;1.23;;;;;;;;;;5070069;28;20522;-79
2022/11/12 13:13:29;;;;;;;2.45;1.52;;;13.90;99.90;;;;;;5064480;28;20078;-81
2022/11/12 13:15:59;;;;;;;7.20;1.52;;;13.80;99.90;;;;;;5064485;28;20024;-81
2022/11/12 13:18:50;;;;;;;7.80;2.33;;;14.10;99.90;;;;;;5066988;28;20046;-81
2022/11/12 13:21:20;;;;;;;4.40;1.33;;;13.70;99.90;;;;;;5067202;28;20040;-81
2022/11/12 13:24:06;;;;;;;4.72;1.88;;;13.20;99.90;;;;;;5065352;28;20104;-80
2022/11/12 13:26:48;;;;;;;4.53;2.42;;;13.20;99.90;;;;;;5069188;28;20028;-82
2022/11/12 13:29:26;;;;;;;5.25;2.90;;;14.10;99.90;;;;;;5068837;28;20029;-80
2022/11/12 13:32:29;;;;;;;5.05;2.72;;;13.10;99.90;;;;;;5071336;28;20085;-80
2022/11/12 13:35:10;;;;;;;5.97;2.33;;;13.90;99.90;;;;;;5068811;28;20044;-80
2022/11/12 13:37:43;;;;;;;3.42;1.92;;;13.30;99.90;;;;;;5072512;28;20048;-80
2022/11/12 13:40:22;;;;;;;4.60;1.90;;;13.70;99.90;;;;;;5063840;28;20021;-81
2022/11/12 13:42:49;;;;;;;5.47;2.90;;;13.70;99.90;;;;;;5068067;28;20094;-80
2022/11/12 13:45:17;;;;;;;4.72;1.70;;;13.80;99.90;;;;;;5070027;28;20592;-80
2022/11/12 13:47:43;;;;;;;4.20;1.13;;;14.90;99.90;;;;;;5072080;28;20028;-80
2022/11/12 13:50:15;;;;;;;3.15;1.63;;;13.60;99.90;;;;;;5069825;28;20398;-79
2022/11/12 13:52:41;;;;;;;3.40;1.70;;;13.50;99.90;;;;;;5068565;28;20541;-80
2022/11/12 13:55:17;;;;;;;4.63;2.28;;;13.80;99.90;;;;;;5070308;28;20029;-79
2022/11/12 13:57:54;;;;;;;3.30;1.73;;;13.90;99.90;;;;;;5072086;28;20032;-79
2022/11/12 14:00:25;;;;;;;2.85;1.80;;;13.70;99.90;;;;;;5061029;28;20033;-82
2022/11/12 14:02:58;;;;;;;3.22;1.40;;;13.50;99.90;;;;;;5055057;28;20024;-82
2022/11/12 14:05:29;;;;;;;2.22;1.35;;;13.80;99.90;;;;;;5062317;28;20517;-79
2022/11/12 14:08:07;;;;;;;2.85;1.58;;;12.60;99.90;;;;;;5060501;28;20025;-81
2022/11/12 14:10:44;;;;;;;3.08;1.73;;;13.40;99.90;;;;;;5054941;28;20086;-78
2022/11/12 14:13:29;;;;;;;2.22;1.35;;;13.60;99.90;;;;;;5081355;28;20041;-79
2022/11/12 14:16:13;;;;;;;3.47;1.30;;;;;;;;;;5078286;28;20025;-78
2022/11/12 14:18:59;;;;;;;3.05;1.40;;;12.00;99.90;;;;;;5079347;28;20051;-79
2022/11/12 14:21:25;;;;;;;2.42;1.45;;;;;;;;;;5074487;28;20024;-78
2022/11/12 14:23:51;;;;;;;2.03;1.08;;;11.80;99.90;;;;;;5070106;28;20024;-79
2022/11/12 14:26:37;;;;;;;4.93;1.23;;;12.20;99.90;;;;;;5066780;28;20028;-79
2022/11/12 14:29:03;;;;;;;2.20;1.00;;;;;;;;;;5067916;28;20104;-79
2022/11/12 14:31:28;;;;;;;2.50;1.00;;;12.40;99.90;;;;;;5071351;28;20831;-80
2022/11/12 14:33:54;;;;;;;2.95;1.30;;;;;;;;;;5070872;28;20061;-79
2022/11/12 14:36:21;;;;;;;2.15;1.42;;;;;;;;;;5064542;28;20071;-80
2022/11/12 14:38:51;;;;;;;2.83;1.20;;;11.70;99.90;;;;;;5070668;28;20037;-81
2022/11/12 14:41:35;;;;;;;2.70;1.35;;;12.20;99.90;;;;;;5065615;28;20079;-80
2022/11/12 14:44:04;;;;;;;1.55;0.77;;;12.40;99.90;;;;;;5063345;28;20581;-80
2022/11/12 14:46:46;;;;;;;5.03;1.27;;;11.90;99.90;;;;;;5070274;28;20374;-80
2022/11/12 14:49:26;;;;;;;2.13;1.17;;;11.80;99.90;;;;;;5065280;28;20028;-80
2022/11/12 14:52:24;;;;;;;1.75;0.70;;;11.10;99.90;;;;;;5065756;28;20075;-80